sensor_id;sensor_type;location;lat;lon;timestamp;pressure;altitude;pressure_sealevel;temperature;humidity
72975;BME280;61166;54.228;37.632;2022-11-15T00:00:56;100070.25;;;-5.18;nan
72975;BME280;61166;54.228;37.632;2022-11-15T00:03:26;100092.44;;;-5.03;nan
72975;BME280;61166;54.228;37.632;2022-11-15T00:05:53;100070.56;;;-4.94;nan
72975;BME280;61166;54.228;37.632;2022-11-15T00:08:20;100055.00;;;-4.91;nan
72975;BME280;61166;54.228;37.632;2022-11-15T00:10:57;100053.16;;;-4.89;nan
72975;BME280;61166;54.228;37.632;2022-11-15T00:13:24;100045.72;;;-4.94;nan
72975;BME280;61166;54.228;37.632;2022-11-15T00:15:51;100053.34;;;-4.92;nan
72975;BME280;61166;54.228;37.632;2022-11-15T00:18:18;100045.09;;;-4.97;nan
72975;BME280;61166;54.228;37.632;2022-11-15T00:20:45;100051.88;;;-4.96;nan
72975;BME280;61166;54.228;37.632;2022-11-15T00:23:11;100042.44;;;-4.96;nan
72975;BME280;61166;54.228;37.632;2022-11-15T00:25:38;100044.72;;;-5.06;nan
72975;BME280;61166;54.228;37.632;2022-11-15T00:28:05;100044.00;;;-5.08;nan
72975;BME280;61166;54.228;37.632;2022-11-15T00:30:31;100038.41;;;-5.14;nan
72975;BME280;61166;54.228;37.632;2022-11-15T00:33:05;100034.19;;;-5.15;nan
72975;BME280;61166;54.228;37.632;2022-11-15T00:35:33;100029.34;;;-5.20;nan
72975;BME280;61166;54.228;37.632;2022-11-15T00:38:00;100026.97;;;-5.23;nan
72975;BME280;61166;54.228;37.632;2022-11-15T00:40:28;100034.09;;;-5.28;nan
72975;BME280;61166;54.228;37.632;2022-11-15T00:42:54;100018.34;;;-5.36;nan
72975;BME280;61166;54.228;37.632;2022-11-15T00:45:21;100024.56;;;-5.40;nan
72975;BME280;61166;54.228;37.632;2022-11-15T00:47:48;100013.41;;;-5.39;nan
72975;BME280;61166;54.228;37.632;2022-11-15T00:50:14;100015.31;;;-5.43;nan
72975;BME280;61166;54.228;37.632;2022-11-15T00:52:41;100015.94;;;-5.53;nan
72975;BME280;61166;54.228;37.632;2022-11-15T00:55:16;100015.28;;;-5.57;nan
72975;BME280;61166;54.228;37.632;2022-11-15T00:57:44;100014.00;;;-5.64;nan
72975;BME280;61166;54.228;37.632;2022-11-15T01:00:11;100007.03;;;-5.62;nan
72975;BME280;61166;54.228;37.632;2022-11-15T01:02:38;100009.59;;;-5.62;nan
72975;BME280;61166;54.228;37.632;2022-11-15T01:05:05;100012.91;;;-5.60;nan
72975;BME280;61166;54.228;37.632;2022-11-15T01:07:32;100014.81;;;-5.63;nan
72975;BME280;61166;54.228;37.632;2022-11-15T01:09:59;100008.56;;;-5.74;nan
72975;BME280;61166;54.228;37.632;2022-11-15T01:12:26;100003.63;;;-5.77;nan
72975;BME280;61166;54.228;37.632;2022-11-15T01:14:52;100000.06;;;-5.74;nan
72975;BME280;61166;54.228;37.632;2022-11-15T01:17:19;100006.75;;;-5.72;nan
72975;BME280;61166;54.228;37.632;2022-11-15T01:19:46;100013.53;;;-5.71;nan
72975;BME280;61166;54.228;37.632;2022-11-15T01:22:12;100011.03;;;-5.72;nan
72975;BME280;61166;54.228;37.632;2022-11-15T01:24:39;100010.22;;;-5.73;nan
72975;BME280;61166;54.228;37.632;2022-11-15T01:27:06;100015.53;;;-5.76;nan
72975;BME280;61166;54.228;37.632;2022-11-15T01:29:33;100010.88;;;-5.69;nan
72975;BME280;61166;54.228;37.632;2022-11-15T01:32:00;100010.78;;;-5.68;nan
72975;BME280;61166;54.228;37.632;2022-11-15T01:34:27;100008.22;;;-5.68;nan
72975;BME280;61166;54.228;37.632;2022-11-15T01:36:53;99991.19;;;-5.69;nan
72975;BME280;61166;54.228;37.632;2022-11-15T01:39:20;99999.78;;;-5.70;nan
72975;BME280;61166;54.228;37.632;2022-11-15T01:41:47;99998.16;;;-5.71;nan
72975;BME280;61166;54.228;37.632;2022-11-15T01:44:40;99999.19;;;-5.59;nan
72975;BME280;61166;54.228;37.632;2022-11-15T01:47:20;99998.56;;;-5.48;nan
72975;BME280;61166;54.228;37.632;2022-11-15T01:49:57;100011.66;;;-5.39;nan
72975;BME280;61166;54.228;37.632;2022-11-15T01:52:28;100004.44;;;-5.32;nan
72975;BME280;61166;54.228;37.632;2022-11-15T01:57:26;99996.81;;;-5.19;nan
72975;BME280;61166;54.228;37.632;2022-11-15T01:59:53;100003.13;;;-5.11;nan
72975;BME280;61166;54.228;37.632;2022-11-15T02:02:20;100006.34;;;-4.93;nan
72975;BME280;61166;54.228;37.632;2022-11-15T02:04:47;100019.59;;;-4.72;nan
72975;BME280;61166;54.228;37.632;2022-11-15T02:07:17;100005.31;;;-4.49;nan
72975;BME280;61166;54.228;37.632;2022-11-15T02:09:45;99999.72;;;-4.42;nan
72975;BME280;61166;54.228;37.632;2022-11-15T02:12:15;99986.88;;;-4.42;nan
72975;BME280;61166;54.228;37.632;2022-11-15T02:14:48;99997.34;;;-4.45;nan
72975;BME280;61166;54.228;37.632;2022-11-15T02:27:57;99980.81;;;-4.01;nan
72975;BME280;61166;54.228;37.632;2022-11-15T02:33:01;99975.34;;;-3.70;nan
72975;BME280;61166;54.228;37.632;2022-11-15T02:35:39;99978.53;;;-3.53;nan
72975;BME280;61166;54.228;37.632;2022-11-15T02:38:24;99976.59;;;-3.50;nan
72975;BME280;61166;54.228;37.632;2022-11-15T02:41:07;99980.28;;;-3.41;nan
72975;BME280;61166;54.228;37.632;2022-11-15T02:43:51;99975.84;;;-3.39;nan
72975;BME280;61166;54.228;37.632;2022-11-15T02:48:50;99963.81;;;-3.39;nan
72975;BME280;61166;54.228;37.632;2022-11-15T02:51:18;99970.09;;;-3.30;nan
72975;BME280;61166;54.228;37.632;2022-11-15T02:53:45;99959.28;;;-3.22;nan
72975;BME280;61166;54.228;37.632;2022-11-15T02:56:11;99965.03;;;-3.19;nan
72975;BME280;61166;54.228;37.632;2022-11-15T03:09:31;99959.97;;;-3.08;nan
72975;BME280;61166;54.228;37.632;2022-11-15T03:12:12;99956.91;;;-3.13;nan
72975;BME280;61166;54.228;37.632;2022-11-15T03:15:12;99955.88;;;-3.10;nan
72975;BME280;61166;54.228;37.632;2022-11-15T03:17:59;99953.69;;;-3.04;nan
72975;BME280;61166;54.228;37.632;2022-11-15T03:20:27;99960.50;;;-3.03;nan
72975;BME280;61166;54.228;37.632;2022-11-15T03:22:58;99952.06;;;-3.05;nan
72975;BME280;61166;54.228;37.632;2022-11-15T03:25:28;99943.41;;;-3.04;nan
72975;BME280;61166;54.228;37.632;2022-11-15T03:27:58;99943.91;;;-2.98;nan
72975;BME280;61166;54.228;37.632;2022-11-15T03:30:28;99940.81;;;-2.91;nan
72975;BME280;61166;54.228;37.632;2022-11-15T03:32:57;99933.44;;;-2.84;nan
72975;BME280;61166;54.228;37.632;2022-11-15T03:35:27;99933.81;;;-2.89;nan
72975;BME280;61166;54.228;37.632;2022-11-15T03:40:40;99927.47;;;-2.85;nan
72975;BME280;61166;54.228;37.632;2022-11-15T03:43:30;99929.72;;;-2.80;nan
72975;BME280;61166;54.228;37.632;2022-11-15T03:46:03;99924.69;;;-2.82;nan
72975;BME280;61166;54.228;37.632;2022-11-15T03:48:38;99913.34;;;-2.79;nan
72975;BME280;61166;54.228;37.632;2022-11-15T03:51:06;99913.03;;;-2.75;nan
72975;BME280;61166;54.228;37.632;2022-11-15T03:53:32;99909.53;;;-2.74;nan
72975;BME280;61166;54.228;37.632;2022-11-15T03:55:59;99902.84;;;-2.76;nan
72975;BME280;61166;54.228;37.632;2022-11-15T03:58:26;99910.66;;;-2.78;nan
72975;BME280;61166;54.228;37.632;2022-11-15T04:00:53;99909.34;;;-2.83;nan
72975;BME280;61166;54.228;37.632;2022-11-15T04:03:19;99905.41;;;-2.76;nan
72975;BME280;61166;54.228;37.632;2022-11-15T04:05:46;99914.88;;;-2.77;nan
72975;BME280;61166;54.228;37.632;2022-11-15T04:08:14;99903.34;;;-2.71;nan
72975;BME280;61166;54.228;37.632;2022-11-15T04:10:41;99900.44;;;-2.67;nan
72975;BME280;61166;54.228;37.632;2022-11-15T04:13:07;99892.59;;;-2.65;nan
72975;BME280;61166;54.228;37.632;2022-11-15T04:15:34;99891.91;;;-2.67;nan
72975;BME280;61166;54.228;37.632;2022-11-15T04:18:01;99897.59;;;-2.75;nan
72975;BME280;61166;54.228;37.632;2022-11-15T04:20:29;99886.69;;;-2.78;nan
72975;BME280;61166;54.228;37.632;2022-11-15T04:22:58;99892.22;;;-2.72;nan
72975;BME280;61166;54.228;37.632;2022-11-15T04:25:24;99883.00;;;-2.63;nan
72975;BME280;61166;54.228;37.632;2022-11-15T04:27:57;99885.16;;;-2.57;nan
72975;BME280;61166;54.228;37.632;2022-11-15T04:30:24;99885.75;;;-2.53;nan
72975;BME280;61166;54.228;37.632;2022-11-15T04:32:50;99895.22;;;-2.54;nan
72975;BME280;61166;54.228;37.632;2022-11-15T04:35:17;99894.56;;;-2.45;nan
72975;BME280;61166;54.228;37.632;2022-11-15T04:37:44;99893.91;;;-2.36;nan
72975;BME280;61166;54.228;37.632;2022-11-15T04:40:15;99885.97;;;-2.33;nan
72975;BME280;61166;54.228;37.632;2022-11-15T04:42:42;99879.38;;;-2.25;nan
72975;BME280;61166;54.228;37.632;2022-11-15T04:45:09;99890.28;;;-2.22;nan
72975;BME280;61166;54.228;37.632;2022-11-15T04:47:36;99883.88;;;-2.16;nan
72975;BME280;61166;54.228;37.632;2022-11-15T04:50:03;99880.34;;;-2.15;nan
72975;BME280;61166;54.228;37.632;2022-11-15T04:52:30;99882.13;;;-2.16;nan
72975;BME280;61166;54.228;37.632;2022-11-15T04:54:56;99885.28;;;-2.12;nan
72975;BME280;61166;54.228;37.632;2022-11-15T04:57:23;99881.56;;;-2.08;nan
72975;BME280;61166;54.228;37.632;2022-11-15T04:59:50;99885.06;;;-2.09;nan
72975;BME280;61166;54.228;37.632;2022-11-15T05:02:16;99887.91;;;-2.01;nan
72975;BME280;61166;54.228;37.632;2022-11-15T05:04:43;99888.41;;;-1.85;nan
72975;BME280;61166;54.228;37.632;2022-11-15T05:07:09;99889.59;;;-1.78;nan
72975;BME280;61166;54.228;37.632;2022-11-15T05:09:36;99882.28;;;-1.73;nan
72975;BME280;61166;54.228;37.632;2022-11-15T05:12:03;99884.88;;;-1.73;nan
72975;BME280;61166;54.228;37.632;2022-11-15T05:14:29;99879.59;;;-1.71;nan
72975;BME280;61166;54.228;37.632;2022-11-15T05:16:56;99885.69;;;-1.72;nan
72975;BME280;61166;54.228;37.632;2022-11-15T05:19:22;99885.59;;;-1.59;nan
72975;BME280;61166;54.228;37.632;2022-11-15T05:21:49;99883.72;;;-1.46;nan
72975;BME280;61166;54.228;37.632;2022-11-15T05:24:16;99885.72;;;-1.39;nan
72975;BME280;61166;54.228;37.632;2022-11-15T05:26:42;99884.66;;;-1.36;nan
72975;BME280;61166;54.228;37.632;2022-11-15T05:29:09;99883.00;;;-1.37;nan
72975;BME280;61166;54.228;37.632;2022-11-15T05:31:39;99876.91;;;-1.36;nan
72975;BME280;61166;54.228;37.632;2022-11-15T05:34:06;99878.56;;;-1.24;nan
72975;BME280;61166;54.228;37.632;2022-11-15T05:36:36;99877.56;;;-1.12;nan
72975;BME280;61166;54.228;37.632;2022-11-15T05:39:05;99874.06;;;-1.11;nan
72975;BME280;61166;54.228;37.632;2022-11-15T05:41:41;99877.34;;;-1.09;nan
72975;BME280;61166;54.228;37.632;2022-11-15T05:44:10;99879.09;;;-1.09;nan
72975;BME280;61166;54.228;37.632;2022-11-15T05:46:39;99874.97;;;-1.01;nan
72975;BME280;61166;54.228;37.632;2022-11-15T05:49:10;99879.16;;;-0.88;nan
72975;BME280;61166;54.228;37.632;2022-11-15T05:51:38;99876.81;;;-0.80;nan
72975;BME280;61166;54.228;37.632;2022-11-15T05:54:05;99864.59;;;-0.78;nan
72975;BME280;61166;54.228;37.632;2022-11-15T05:56:32;99861.66;;;-0.74;nan
72975;BME280;61166;54.228;37.632;2022-11-15T05:58:58;99862.22;;;-0.70;nan
72975;BME280;61166;54.228;37.632;2022-11-15T06:01:26;99865.75;;;-0.71;nan
72975;BME280;61166;54.228;37.632;2022-11-15T06:03:54;99865.50;;;-0.68;nan
72975;BME280;61166;54.228;37.632;2022-11-15T06:06:20;99863.81;;;-0.58;nan
72975;BME280;61166;54.228;37.632;2022-11-15T06:08:47;99866.13;;;-0.55;nan
72975;BME280;61166;54.228;37.632;2022-11-15T06:11:14;99868.47;;;-0.52;nan
72975;BME280;61166;54.228;37.632;2022-11-15T06:13:41;99872.69;;;-0.51;nan
72975;BME280;61166;54.228;37.632;2022-11-15T06:16:07;99864.25;;;-0.53;nan
72975;BME280;61166;54.228;37.632;2022-11-15T06:18:34;99864.00;;;-0.50;nan
72975;BME280;61166;54.228;37.632;2022-11-15T06:21:01;99866.47;;;-0.48;nan
72975;BME280;61166;54.228;37.632;2022-11-15T06:23:30;99864.44;;;-0.45;nan
72975;BME280;61166;54.228;37.632;2022-11-15T06:25:59;99862.75;;;-0.35;nan
72975;BME280;61166;54.228;37.632;2022-11-15T06:28:30;99860.88;;;-0.32;nan
72975;BME280;61166;54.228;37.632;2022-11-15T06:31:09;99857.09;;;-0.28;nan
72975;BME280;61166;54.228;37.632;2022-11-15T06:33:38;99853.50;;;-0.16;nan
72975;BME280;61166;54.228;37.632;2022-11-15T06:36:06;99856.72;;;-0.03;nan
72975;BME280;61166;54.228;37.632;2022-11-15T06:38:39;99850.72;;;-0.04;nan
72975;BME280;61166;54.228;37.632;2022-11-15T06:41:09;99848.56;;;0.02;nan
72975;BME280;61166;54.228;37.632;2022-11-15T06:43:36;99849.13;;;0.05;nan
72975;BME280;61166;54.228;37.632;2022-11-15T06:46:03;99847.22;;;0.07;nan
72975;BME280;61166;54.228;37.632;2022-11-15T06:48:31;99835.28;;;0.16;nan
72975;BME280;61166;54.228;37.632;2022-11-15T06:51:00;99836.94;;;0.17;nan
72975;BME280;61166;54.228;37.632;2022-11-15T06:53:27;99843.19;;;0.14;nan
72975;BME280;61166;54.228;37.632;2022-11-15T06:55:58;99838.81;;;0.15;nan
72975;BME280;61166;54.228;37.632;2022-11-15T06:58:24;99833.53;;;0.16;nan
72975;BME280;61166;54.228;37.632;2022-11-15T07:00:51;99839.69;;;0.25;nan
72975;BME280;61166;54.228;37.632;2022-11-15T07:03:19;99837.94;;;0.25;nan
72975;BME280;61166;54.228;37.632;2022-11-15T07:05:56;99832.09;;;0.33;nan
72975;BME280;61166;54.228;37.632;2022-11-15T07:08:31;99828.31;;;0.37;nan
72975;BME280;61166;54.228;37.632;2022-11-15T07:10:59;99827.09;;;0.41;nan
72975;BME280;61166;54.228;37.632;2022-11-15T07:13:26;99827.28;;;0.49;nan
72975;BME280;61166;54.228;37.632;2022-11-15T07:15:54;99827.81;;;0.53;nan
72975;BME280;61166;54.228;37.632;2022-11-15T07:18:21;99824.03;;;0.66;nan
72975;BME280;61166;54.228;37.632;2022-11-15T07:20:48;99816.56;;;0.83;nan
72975;BME280;61166;54.228;37.632;2022-11-15T07:23:15;99817.25;;;0.85;nan
72975;BME280;61166;54.228;37.632;2022-11-15T07:25:41;99819.19;;;0.92;nan
72975;BME280;61166;54.228;37.632;2022-11-15T07:28:09;99807.75;;;1.05;nan
72975;BME280;61166;54.228;37.632;2022-11-15T07:30:35;99813.75;;;1.05;nan
72975;BME280;61166;54.228;37.632;2022-11-15T07:33:09;99812.41;;;1.11;nan
72975;BME280;61166;54.228;37.632;2022-11-15T07:35:35;99805.00;;;1.16;nan
72975;BME280;61166;54.228;37.632;2022-11-15T07:38:03;99803.09;;;1.18;nan
72975;BME280;61166;54.228;37.632;2022-11-15T07:40:32;99805.16;;;1.24;nan
72975;BME280;61166;54.228;37.632;2022-11-15T07:43:04;99797.50;;;1.32;nan
72975;BME280;61166;54.228;37.632;2022-11-15T07:45:31;99797.91;;;1.37;nan
72975;BME280;61166;54.228;37.632;2022-11-15T07:47:58;99795.19;;;1.39;nan
72975;BME280;61166;54.228;37.632;2022-11-15T07:50:25;99784.41;;;1.43;nan
72975;BME280;61166;54.228;37.632;2022-11-15T07:52:59;99787.41;;;1.48;nan
72975;BME280;61166;54.228;37.632;2022-11-15T07:55:27;99786.44;;;1.59;nan
72975;BME280;61166;54.228;37.632;2022-11-15T07:58:00;99791.63;;;1.69;nan
72975;BME280;61166;54.228;37.632;2022-11-15T08:00:27;99793.25;;;1.70;nan
72975;BME280;61166;54.228;37.632;2022-11-15T08:03:04;99782.28;;;1.76;nan
72975;BME280;61166;54.228;37.632;2022-11-15T08:05:32;99778.47;;;1.80;nan
72975;BME280;61166;54.228;37.632;2022-11-15T08:07:59;99782.28;;;1.85;nan
72975;BME280;61166;54.228;37.632;2022-11-15T08:10:27;99775.59;;;1.83;nan
72975;BME280;61166;54.228;37.632;2022-11-15T08:13:01;99770.53;;;1.81;nan
72975;BME280;61166;54.228;37.632;2022-11-15T08:15:29;99770.81;;;1.88;nan
72975;BME280;61166;54.228;37.632;2022-11-15T08:18:02;99773.53;;;1.86;nan
72975;BME280;61166;54.228;37.632;2022-11-15T08:20:29;99768.09;;;1.80;nan
72975;BME280;61166;54.228;37.632;2022-11-15T08:22:57;99768.97;;;1.71;nan
72975;BME280;61166;54.228;37.632;2022-11-15T08:25:26;99758.19;;;1.65;nan
72975;BME280;61166;54.228;37.632;2022-11-15T08:27:54;99764.63;;;1.61;nan
72975;BME280;61166;54.228;37.632;2022-11-15T08:30:22;99758.88;;;1.68;nan
72975;BME280;61166;54.228;37.632;2022-11-15T08:32:50;99747.16;;;1.63;nan
72975;BME280;61166;54.228;37.632;2022-11-15T08:35:18;99740.88;;;1.56;nan
72975;BME280;61166;54.228;37.632;2022-11-15T08:37:52;99743.75;;;1.53;nan
72975;BME280;61166;54.228;37.632;2022-11-15T08:40:20;99746.06;;;1.47;nan
72975;BME280;61166;54.228;37.632;2022-11-15T08:42:47;99748.00;;;1.35;nan
72975;BME280;61166;54.228;37.632;2022-11-15T08:45:14;99733.28;;;1.26;nan
72975;BME280;61166;54.228;37.632;2022-11-15T08:47:41;99728.09;;;1.26;nan
72975;BME280;61166;54.228;37.632;2022-11-15T08:50:08;99730.28;;;1.30;nan
72975;BME280;61166;54.228;37.632;2022-11-15T08:52:34;99719.25;;;1.19;nan
72975;BME280;61166;54.228;37.632;2022-11-15T08:55:01;99720.59;;;1.23;nan
72975;BME280;61166;54.228;37.632;2022-11-15T08:57:30;99716.38;;;1.22;nan
72975;BME280;61166;54.228;37.632;2022-11-15T08:59:57;99714.47;;;1.24;nan
72975;BME280;61166;54.228;37.632;2022-11-15T09:02:24;99708.72;;;1.30;nan
72975;BME280;61166;54.228;37.632;2022-11-15T09:04:50;99705.44;;;1.38;nan
72975;BME280;61166;54.228;37.632;2022-11-15T09:07:17;99694.38;;;1.45;nan
72975;BME280;61166;54.228;37.632;2022-11-15T09:09:44;99696.84;;;1.47;nan
72975;BME280;61166;54.228;37.632;2022-11-15T09:12:11;99689.75;;;1.49;nan
72975;BME280;61166;54.228;37.632;2022-11-15T09:14:38;99686.19;;;1.50;nan
72975;BME280;61166;54.228;37.632;2022-11-15T09:17:07;99675.56;;;1.43;nan
72975;BME280;61166;54.228;37.632;2022-11-15T09:19:34;99672.41;;;1.49;nan
72975;BME280;61166;54.228;37.632;2022-11-15T09:22:01;99666.00;;;1.53;nan
72975;BME280;61166;54.228;37.632;2022-11-15T09:24:28;99668.56;;;1.53;nan
72975;BME280;61166;54.228;37.632;2022-11-15T09:26:54;99669.13;;;1.47;nan
72975;BME280;61166;54.228;37.632;2022-11-15T09:29:21;99665.44;;;1.50;nan
72975;BME280;61166;54.228;37.632;2022-11-15T09:31:48;99657.28;;;1.45;nan
72975;BME280;61166;54.228;37.632;2022-11-15T09:34:15;99654.16;;;1.41;nan
72975;BME280;61166;54.228;37.632;2022-11-15T09:36:41;99650.59;;;1.42;nan
72975;BME280;61166;54.228;37.632;2022-11-15T09:39:08;99652.22;;;1.06;nan
72975;BME280;61166;54.228;37.632;2022-11-15T09:44:51;99660.84;;;1.34;nan
72975;BME280;61166;54.228;37.632;2022-11-15T09:47:49;99648.00;;;1.42;nan
72975;BME280;61166;54.228;37.632;2022-11-15T09:50:30;99645.13;;;1.45;nan
72975;BME280;61166;54.228;37.632;2022-11-15T09:52:57;99646.78;;;1.46;nan
72975;BME280;61166;54.228;37.632;2022-11-15T09:55:44;99639.09;;;1.54;nan
72975;BME280;61166;54.228;37.632;2022-11-15T09:58:24;99632.72;;;1.49;nan
72975;BME280;61166;54.228;37.632;2022-11-15T10:00:52;99631.97;;;1.66;nan
72975;BME280;61166;54.228;37.632;2022-11-15T10:05:47;99618.84;;;1.95;nan
72975;BME280;61166;54.228;37.632;2022-11-15T10:08:31;99616.44;;;1.56;nan
72975;BME280;61166;54.228;37.632;2022-11-15T10:11:07;99615.06;;;1.62;nan
72975;BME280;61166;54.228;37.632;2022-11-15T10:13:59;99605.28;;;1.74;nan
72975;BME280;61166;54.228;37.632;2022-11-15T10:27:45;99597.06;;;1.60;nan
72975;BME280;61166;54.228;37.632;2022-11-15T10:30:16;99593.78;;;1.58;nan
72975;BME280;61166;54.228;37.632;2022-11-15T10:32:45;99597.81;;;1.43;nan
72975;BME280;61166;54.228;37.632;2022-11-15T10:35:28;99590.91;;;1.24;nan
72975;BME280;61166;54.228;37.632;2022-11-15T10:38:13;99594.88;;;1.19;nan
72975;BME280;61166;54.228;37.632;2022-11-15T10:40:41;99580.50;;;1.07;nan
72975;BME280;61166;54.228;37.632;2022-11-15T10:43:15;99587.41;;;1.16;nan
72975;BME280;61166;54.228;37.632;2022-11-15T10:45:43;99578.16;;;1.13;nan
72975;BME280;61166;54.228;37.632;2022-11-15T10:50:43;99574.94;;;1.02;nan
72975;BME280;61166;54.228;37.632;2022-11-15T10:53:19;99570.31;;;0.95;nan
72975;BME280;61166;54.228;37.632;2022-11-15T10:55:50;99568.41;;;0.88;nan
72975;BME280;61166;54.228;37.632;2022-11-15T11:00:53;99554.47;;;0.52;nan
72975;BME280;61166;54.228;37.632;2022-11-15T11:03:28;99550.78;;;0.45;nan
72975;BME280;61166;54.228;37.632;2022-11-15T11:06:07;99547.38;;;0.35;nan
72975;BME280;61166;54.228;37.632;2022-11-15T11:08:35;99543.03;;;0.25;nan
72975;BME280;61166;54.228;37.632;2022-11-15T11:11:03;99544.66;;;0.17;nan
72975;BME280;61166;54.228;37.632;2022-11-15T11:13:37;99550.53;;;0.19;nan
72975;BME280;61166;54.228;37.632;2022-11-15T11:18:46;99546.84;;;0.21;nan
72975;BME280;61166;54.228;37.632;2022-11-15T11:24:08;99547.00;;;-0.09;nan
72975;BME280;61166;54.228;37.632;2022-11-15T11:26:49;99549.84;;;-0.03;nan
72975;BME280;61166;54.228;37.632;2022-11-15T11:34:54;99537.84;;;-0.23;nan
72975;BME280;61166;54.228;37.632;2022-11-15T11:40:14;99534.19;;;-0.20;nan
72975;BME280;61166;54.228;37.632;2022-11-15T11:43:00;99534.13;;;-0.40;nan
72975;BME280;61166;54.228;37.632;2022-11-15T11:46:03;99536.00;;;-0.51;nan
72975;BME280;61166;54.228;37.632;2022-11-15T11:48:46;99526.09;;;-0.46;nan
72975;BME280;61166;54.228;37.632;2022-11-15T11:53:54;99525.13;;;-0.55;nan
72975;BME280;61166;54.228;37.632;2022-11-15T11:56:33;99525.41;;;-0.58;nan
72975;BME280;61166;54.228;37.632;2022-11-15T11:59:53;99523.09;;;-0.61;nan
72975;BME280;61166;54.228;37.632;2022-11-15T12:01:52;99521.31;;;-0.70;nan
72975;BME280;61166;54.228;37.632;2022-11-15T12:07:12;99514.38;;;-0.70;nan
72975;BME280;61166;54.228;37.632;2022-11-15T12:09:47;99514.25;;;-0.68;nan
72975;BME280;61166;54.228;37.632;2022-11-15T12:12:23;99507.41;;;-0.79;nan
72975;BME280;61166;54.228;37.632;2022-11-15T12:14:55;99501.34;;;-0.98;nan
72975;BME280;61166;54.228;37.632;2022-11-15T12:17:28;99497.84;;;-0.88;nan
72975;BME280;61166;54.228;37.632;2022-11-15T12:19:56;99489.81;;;-0.94;nan
72975;BME280;61166;54.228;37.632;2022-11-15T12:22:25;99489.41;;;-0.90;nan
72975;BME280;61166;54.228;37.632;2022-11-15T12:25:00;99486.97;;;-0.91;nan
72975;BME280;61166;54.228;37.632;2022-11-15T12:27:37;99476.66;;;-0.91;nan
72975;BME280;61166;54.228;37.632;2022-11-15T12:30:11;99507.88;;;-0.94;nan
72975;BME280;61166;54.228;37.632;2022-11-15T12:32:51;99481.63;;;-1.00;nan
72975;BME280;61166;54.228;37.632;2022-11-15T12:35:35;99480.44;;;-0.95;nan
72975;BME280;61166;54.228;37.632;2022-11-15T12:38:02;99473.41;;;-0.84;nan
72975;BME280;61166;54.228;37.632;2022-11-15T12:40:35;99471.50;;;-0.82;nan
72975;BME280;61166;54.228;37.632;2022-11-15T12:50:56;99455.44;;;-0.95;nan
72975;BME280;61166;54.228;37.632;2022-11-15T12:58:48;99441.94;;;-1.08;nan
72975;BME280;61166;54.228;37.632;2022-11-15T13:11:58;99420.25;;;-1.36;nan
72975;BME280;61166;54.228;37.632;2022-11-15T13:17:23;99418.03;;;-1.50;nan
72975;BME280;61166;54.228;37.632;2022-11-15T13:22:44;99410.72;;;-1.45;nan
72975;BME280;61166;54.228;37.632;2022-11-15T13:30:37;99388.97;;;-1.52;nan
72975;BME280;61166;54.228;37.632;2022-11-15T13:35:50;99384.91;;;-1.45;nan
72975;BME280;61166;54.228;37.632;2022-11-15T13:40:45;99379.16;;;-1.58;nan
72975;BME280;61166;54.228;37.632;2022-11-15T13:43:34;99367.47;;;-1.62;nan
72975;BME280;61166;54.228;37.632;2022-11-15T13:46:15;99365.72;;;-1.62;nan
72975;BME280;61166;54.228;37.632;2022-11-15T13:48:44;99366.25;;;-1.58;nan
72975;BME280;61166;54.228;37.632;2022-11-15T13:51:16;99350.63;;;-1.67;nan
72975;BME280;61166;54.228;37.632;2022-11-15T13:53:48;99346.28;;;-1.66;nan
72975;BME280;61166;54.228;37.632;2022-11-15T13:56:18;99342.50;;;-1.62;nan
72975;BME280;61166;54.228;37.632;2022-11-15T13:58:45;99338.00;;;-1.70;nan
72975;BME280;61166;54.228;37.632;2022-11-15T14:01:17;99338.47;;;-1.55;nan
72975;BME280;61166;54.228;37.632;2022-11-15T14:03:56;99333.38;;;-1.66;nan
72975;BME280;61166;54.228;37.632;2022-11-15T14:06:25;99340.31;;;-1.67;nan
72975;BME280;61166;54.228;37.632;2022-11-15T14:11:36;99338.16;;;-1.61;nan
72975;BME280;61166;54.228;37.632;2022-11-15T14:14:12;99332.56;;;-1.67;nan
72975;BME280;61166;54.228;37.632;2022-11-15T14:16:44;99338.00;;;-1.70;nan
72975;BME280;61166;54.228;37.632;2022-11-15T14:19:32;99330.00;;;-1.67;nan
72975;BME280;61166;54.228;37.632;2022-11-15T14:24:44;99316.81;;;-1.73;nan
72975;BME280;61166;54.228;37.632;2022-11-15T14:27:26;99315.03;;;-1.73;nan
72975;BME280;61166;54.228;37.632;2022-11-15T14:29:53;99315.03;;;-1.82;nan
72975;BME280;61166;54.228;37.632;2022-11-15T14:32:22;99314.91;;;-1.71;nan
72975;BME280;61166;54.228;37.632;2022-11-15T14:34:55;99302.97;;;-1.72;nan
72975;BME280;61166;54.228;37.632;2022-11-15T14:37:31;99298.75;;;-1.83;nan
72975;BME280;61166;54.228;37.632;2022-11-15T14:39:58;99294.38;;;-1.92;nan
72975;BME280;61166;54.228;37.632;2022-11-15T14:42:25;99289.47;;;-1.95;nan
72975;BME280;61166;54.228;37.632;2022-11-15T14:44:52;99289.41;;;-2.05;nan
72975;BME280;61166;54.228;37.632;2022-11-15T14:47:18;99294.56;;;-2.05;nan
72975;BME280;61166;54.228;37.632;2022-11-15T14:49:46;99292.38;;;-2.09;nan
72975;BME280;61166;54.228;37.632;2022-11-15T14:52:39;99278.75;;;-2.21;nan
72975;BME280;61166;54.228;37.632;2022-11-15T14:55:33;99279.31;;;-2.17;nan
72975;BME280;61166;54.228;37.632;2022-11-15T14:58:00;99264.28;;;-2.12;nan
72975;BME280;61166;54.228;37.632;2022-11-15T15:00:27;99252.78;;;-2.08;nan
72975;BME280;61166;54.228;37.632;2022-11-15T15:03:01;99259.13;;;-2.12;nan
72975;BME280;61166;54.228;37.632;2022-11-15T15:05:33;99266.94;;;-2.23;nan
72975;BME280;61166;54.228;37.632;2022-11-15T15:08:01;99269.13;;;-2.19;nan
72975;BME280;61166;54.228;37.632;2022-11-15T15:10:32;99269.78;;;-2.26;nan
72975;BME280;61166;54.228;37.632;2022-11-15T15:13:34;99260.34;;;-2.16;nan
72975;BME280;61166;54.228;37.632;2022-11-15T15:16:00;99254.63;;;-2.20;nan
72975;BME280;61166;54.228;37.632;2022-11-15T15:18:27;99239.69;;;-2.26;nan
72975;BME280;61166;54.228;37.632;2022-11-15T15:20:56;99241.91;;;-2.12;nan
72975;BME280;61166;54.228;37.632;2022-11-15T15:23:23;99241.38;;;-2.15;nan
72975;BME280;61166;54.228;37.632;2022-11-15T15:25:50;99239.72;;;-2.16;nan
72975;BME280;61166;54.228;37.632;2022-11-15T15:28:16;99239.16;;;-2.20;nan